Time;durP1;ratioP1;P1;durP2;ratioP2;P2;SDS_P1;SDS_P2;PMS_P1;PMS_P2;Temp;Humidity;BMP_temperature;BMP_pressure;BME280_temperature;BME280_humidity;BME280_pressure;Samples;Min_cycle;Max_cycle;Signal;HPM_P1;HPM_P2
2022/09/22 00:01:19;;;;;;;5.03;2.60;;;9.50;99.90;;;;;;5091735;28;20028;-57
2022/09/22 00:03:48;;;;;;;6.03;2.88;;;9.50;99.90;;;;;;5091762;28;20016;-57
2022/09/22 00:06:19;;;;;;;4.40;2.35;;;9.50;99.90;;;;;;5091921;28;20398;-57
2022/09/22 00:08:51;;;;;;;6.05;2.38;;;9.50;99.90;;;;;;5091549;28;20032;-57
2022/09/22 00:11:27;;;;;;;5.38;2.72;;;9.50;99.90;;;;;;5093038;28;20032;-57
2022/09/22 00:14:00;;;;;;;4.57;2.53;;;9.40;99.90;;;;;;5095461;28;20032;-57
2022/09/22 00:16:30;;;;;;;4.88;2.88;;;9.40;99.90;;;;;;5095450;28;20012;-57
2022/09/22 00:18:55;;;;;;;7.97;2.60;;;9.40;99.90;;;;;;5095305;28;20032;-57
2022/09/22 00:21:23;;;;;;;5.80;2.70;;;9.40;99.90;;;;;;5095644;28;20070;-57
2022/09/22 00:23:49;;;;;;;4.80;2.70;;;9.30;99.90;;;;;;5095078;28;20040;-57
2022/09/22 00:26:17;;;;;;;7.30;2.75;;;9.30;99.90;;;;;;5094578;28;20147;-57
2022/09/22 00:28:44;;;;;;;5.25;2.63;;;9.20;99.90;;;;;;5095063;28;20024;-57
2022/09/22 00:31:16;;;;;;;5.32;2.53;;;9.20;99.90;;;;;;5095648;28;20108;-58
2022/09/22 00:33:43;;;;;;;4.80;2.63;;;9.10;99.90;;;;;;5095024;28;20024;-57
2022/09/22 00:36:09;;;;;;;4.53;2.53;;;9.10;99.90;;;;;;5094998;28;20483;-57
2022/09/22 00:38:37;;;;;;;6.20;2.60;;;9.10;99.90;;;;;;5095353;28;20024;-57
2022/09/22 00:41:04;;;;;;;7.82;2.95;;;9.10;99.90;;;;;;5094826;28;20024;-57
2022/09/22 00:43:35;;;;;;;7.20;2.72;;;9.00;99.90;;;;;;5094828;28;20038;-57
2022/09/22 00:46:22;;;;;;;3.65;2.60;;;9.00;99.90;;;;;;5094496;28;20040;-57
2022/09/22 00:48:53;;;;;;;5.47;2.78;;;8.90;99.90;;;;;;5094694;28;20021;-57
2022/09/22 00:51:23;;;;;;;4.35;2.80;;;8.90;99.90;;;;;;5094813;28;20032;-57
2022/09/22 00:53:49;;;;;;;6.20;2.70;;;8.80;99.90;;;;;;5094488;28;20045;-57
2022/09/22 00:56:20;;;;;;;4.32;2.50;;;8.80;99.90;;;;;;5094171;28;20419;-57
2022/09/22 00:58:57;;;;;;;6.63;2.75;;;8.80;99.90;;;;;;5094966;28;20020;-57
2022/09/22 01:01:23;;;;;;;4.93;2.72;;;8.70;99.90;;;;;;5094503;28;20031;-58
2022/09/22 01:03:49;;;;;;;4.75;2.70;;;8.70;99.90;;;;;;5094585;28;20023;-57
2022/09/22 01:06:23;;;;;;;4.05;2.47;;;8.70;99.90;;;;;;5093095;28;20043;-57
2022/09/22 01:08:49;;;;;;;4.95;3.05;;;8.70;99.90;;;;;;5094273;28;20032;-57
2022/09/22 01:11:19;;;;;;;5.72;3.13;;;8.60;99.90;;;;;;5094080;28;20172;-57
2022/09/22 01:14:14;;;;;;;5.38;2.80;;;8.50;99.90;;;;;;5094408;28;20024;-58
2022/09/22 01:17:14;;;;;;;4.20;2.83;;;8.50;99.90;;;;;;5094202;28;20024;-57
2022/09/22 01:20:01;;;;;;;4.95;2.75;;;8.50;99.90;;;;;;5094492;28;20031;-57
2022/09/22 01:23:00;;;;;;;4.13;2.88;;;8.60;99.90;;;;;;5093436;28;20032;-57
2022/09/22 01:25:32;;;;;;;4.78;2.72;;;8.50;99.90;;;;;;5093595;28;20035;-57
2022/09/22 01:28:21;;;;;;;5.40;3.25;;;8.40;99.90;;;;;;5093789;28;20036;-58
2022/09/22 01:30:58;;;;;;;4.15;2.80;;;8.40;99.90;;;;;;5094008;28;20111;-57
2022/09/22 01:33:52;;;;;;;4.50;2.72;;;8.40;99.90;;;;;;5093884;28;20012;-58
2022/09/22 01:36:26;;;;;;;4.10;2.88;;;8.30;99.90;;;;;;5093729;28;20141;-57
2022/09/22 01:39:13;;;;;;;3.70;2.72;;;8.30;99.90;;;;;;5093559;28;20033;-57
2022/09/22 01:41:39;;;;;;;6.15;2.90;;;8.20;99.90;;;;;;5093766;28;20020;-57
2022/09/22 01:44:19;;;;;;;5.10;2.80;;;8.20;99.90;;;;;;5093658;28;20032;-57
2022/09/22 01:46:59;;;;;;;5.18;2.92;;;8.10;99.90;;;;;;5093434;28;20042;-57
2022/09/22 01:49:29;;;;;;;3.72;2.70;;;8.10;99.90;;;;;;5093792;28;20024;-57
2022/09/22 01:52:01;;;;;;;4.35;2.72;;;8.10;99.90;;;;;;5093716;28;20027;-57
2022/09/22 01:54:35;;;;;;;5.40;2.88;;;8.00;99.90;;;;;;5093053;28;20051;-57
2022/09/22 01:57:08;;;;;;;;;;;8.00;99.90;;;;;;5093864;28;20016;-57
2022/09/22 01:59:38;;;;;;;6.65;3.33;;;8.00;99.90;;;;;;5093301;28;19908;-57
2022/09/22 02:02:11;;;;;;;4.22;2.55;;;7.90;99.90;;;;;;5093435;28;20028;-57
2022/09/22 02:04:48;;;;;;;4.40;2.70;;;7.90;99.90;;;;;;5093300;28;20028;-57
2022/09/22 02:07:23;;;;;;;4.00;3.10;;;7.90;99.90;;;;;;5093024;28;20048;-58
2022/09/22 02:09:49;;;;;;;4.30;2.63;;;7.90;99.90;;;;;;5093123;28;20482;-57
2022/09/22 02:12:17;;;;;;;6.47;2.90;;;7.80;99.90;;;;;;5093115;28;20039;-57
2022/09/22 02:14:43;;;;;;;5.47;2.80;;;7.80;99.90;;;;;;5093148;28;20444;-57
2022/09/22 02:17:09;;;;;;;5.10;2.70;;;7.80;99.90;;;;;;5093325;28;20028;-57
2022/09/22 02:19:39;;;;;;;4.70;3.17;;;7.80;99.90;;;;;;5093048;28;20031;-58
2022/09/22 02:22:07;;;;;;;5.20;2.72;;;7.70;99.90;;;;;;5092599;28;20512;-57
2022/09/22 02:24:38;;;;;;;4.28;2.72;;;7.70;99.90;;;;;;5093389;28;20016;-57
2022/09/22 02:27:12;;;;;;;5.63;2.92;;;7.70;99.90;;;;;;5092935;28;20050;-57
2022/09/22 02:29:42;;;;;;;5.63;2.80;;;7.60;99.90;;;;;;5092805;28;20031;-57
2022/09/22 02:32:12;;;;;;;4.85;2.90;;;7.60;99.90;;;;;;5092936;28;20028;-57
2022/09/22 02:34:38;;;;;;;4.75;2.97;;;7.60;99.90;;;;;;5092797;28;20036;-57
2022/09/22 02:37:36;;;;;;;5.05;2.90;;;7.70;99.90;;;;;;5092391;28;20024;-57
2022/09/22 02:40:29;;;;;;;5.03;2.95;;;7.60;99.90;;;;;;5092776;28;20099;-57
2022/09/22 02:42:59;;;;;;;6.55;2.90;;;7.60;99.90;;;;;;5092681;28;20498;-57
2022/09/22 02:45:51;;;;;;;5.63;2.80;;;7.50;99.90;;;;;;5092784;28;20035;-57
2022/09/22 02:48:22;;;;;;;5.88;2.92;;;7.50;99.90;;;;;;5092392;28;20464;-57
2022/09/22 02:50:49;;;;;;;5.20;2.97;;;7.40;99.90;;;;;;5092384;28;20073;-57
2022/09/22 02:53:16;;;;;;;5.70;2.85;;;7.40;99.90;;;;;;5091855;28;20111;-57
2022/09/22 02:55:43;;;;;;;4.90;3.05;;;7.30;99.90;;;;;;5092646;28;20032;-57
2022/09/22 02:58:09;;;;;;;5.35;3.00;;;7.30;99.90;;;;;;5092252;28;20024;-57
2022/09/22 03:00:35;;;;;;;3.95;2.63;;;7.20;99.90;;;;;;5092329;28;20039;-57
2022/09/22 03:03:01;;;;;;;7.32;2.80;;;7.30;99.90;;;;;;5092279;28;20102;-57
2022/09/22 03:05:27;;;;;;;4.35;3.08;;;7.20;99.90;;;;;;5092246;28;20024;-57
2022/09/22 03:07:52;;;;;;;6.55;3.17;;;7.20;99.90;;;;;;5092255;28;20039;-57
2022/09/22 03:10:18;;;;;;;4.47;2.88;;;7.10;99.90;;;;;;5092033;28;20174;-57
2022/09/22 03:12:44;;;;;;;5.00;2.80;;;7.10;99.90;;;;;;5092347;28;20478;-57
2022/09/22 03:15:11;;;;;;;2.97;2.53;;;7.10;99.90;;;;;;5092229;28;20023;-57
2022/09/22 03:17:37;;;;;;;3.90;2.78;;;7.00;99.90;;;;;;5091916;28;20024;-57
2022/09/22 03:20:05;;;;;;;4.82;2.70;;;7.00;99.90;;;;;;5091709;28;20027;-57
2022/09/22 03:22:31;;;;;;;3.55;2.97;;;6.90;99.90;;;;;;5092290;28;20024;-57
2022/09/22 03:24:57;;;;;;;4.75;3.33;;;6.90;99.90;;;;;;5091956;28;20051;-57
2022/09/22 03:27:22;;;;;;;5.25;3.17;;;6.90;99.90;;;;;;5091494;28;20526;-56
2022/09/22 03:29:48;;;;;;;3.15;2.85;;;6.80;99.90;;;;;;5092309;28;20042;-57
2022/09/22 03:32:14;;;;;;;4.65;2.97;;;6.70;99.90;;;;;;5091704;28;20555;-57
2022/09/22 03:34:39;;;;;;;5.82;3.10;;;6.70;99.90;;;;;;5091420;28;20031;-57
2022/09/22 03:37:05;;;;;;;6.32;3.33;;;6.60;99.90;;;;;;5091791;28;20020;-57
2022/09/22 03:39:31;;;;;;;5.40;3.25;;;6.60;99.90;;;;;;5091996;28;20078;-57
2022/09/22 03:41:57;;;;;;;4.05;2.90;;;6.60;99.90;;;;;;5091873;28;20024;-57
2022/09/22 03:44:25;;;;;;;4.40;3.15;;;6.50;99.90;;;;;;5091691;28;20036;-57
2022/09/22 03:46:52;;;;;;;4.32;2.92;;;6.50;99.90;;;;;;5093903;28;20043;-57
2022/09/22 03:49:17;;;;;;;5.55;3.38;;;6.50;99.90;;;;;;5095342;28;20031;-57
2022/09/22 03:51:43;;;;;;;5.65;3.20;;;6.40;99.90;;;;;;5095827;28;20028;-57
2022/09/22 03:54:09;;;;;;;5.28;3.28;;;6.40;99.90;;;;;;5095521;28;20462;-57
2022/09/22 03:56:34;;;;;;;4.60;3.22;;;6.40;99.90;;;;;;5094469;28;20020;-56
2022/09/22 03:59:00;;;;;;;3.97;3.25;;;6.30;99.90;;;;;;5094252;28;20028;-59
2022/09/22 04:01:26;;;;;;;4.47;3.40;;;6.30;99.90;;;;;;5095484;28;20032;-57
2022/09/22 04:03:52;;;;;;;5.25;3.22;;;6.20;99.90;;;;;;5095383;28;20024;-57
2022/09/22 04:06:18;;;;;;;5.72;3.60;;;6.20;99.90;;;;;;5095286;28;20067;-57
2022/09/22 04:08:43;;;;;;;4.70;3.55;;;6.20;99.90;;;;;;5095536;28;20382;-57
2022/09/22 04:11:09;;;;;;;4.15;3.33;;;6.20;99.90;;;;;;5095263;28;20109;-57
2022/09/22 04:13:35;;;;;;;4.65;3.42;;;6.10;99.90;;;;;;5095713;28;20024;-57
2022/09/22 04:16:01;;;;;;;5.70;3.20;;;6.10;99.90;;;;;;5095188;28;20090;-57
2022/09/22 04:18:28;;;;;;;4.10;3.70;;;6.10;99.90;;;;;;5094838;28;20028;-57
2022/09/22 04:20:58;;;;;;;4.97;3.80;;;6.00;99.90;;;;;;5095204;28;20036;-56
2022/09/22 04:23:26;;;;;;;6.95;3.55;;;6.00;99.90;;;;;;5094949;28;20020;-56
2022/09/22 04:25:52;;;;;;;6.20;3.42;;;6.00;99.90;;;;;;5095275;28;20035;-56
2022/09/22 04:28:18;;;;;;;6.65;3.70;;;6.00;99.90;;;;;;5095014;28;20028;-57
2022/09/22 04:30:45;;;;;;;3.90;3.50;;;5.90;99.90;;;;;;5094875;28;20055;-57
2022/09/22 04:33:11;;;;;;;4.18;3.10;;;5.90;99.90;;;;;;5094675;28;20482;-57
2022/09/22 04:35:37;;;;;;;4.88;3.50;;;5.80;99.90;;;;;;5094681;28;20016;-57
2022/09/22 04:38:03;;;;;;;4.35;3.40;;;5.80;99.90;;;;;;5094734;28;20482;-57
2022/09/22 04:40:29;;;;;;;6.40;3.80;;;5.80;99.90;;;;;;5095269;28;20046;-57
2022/09/22 04:42:56;;;;;;;4.78;3.60;;;5.90;99.90;;;;;;5094728;28;20509;-56
2022/09/22 04:45:22;;;;;;;5.75;3.80;;;5.80;99.90;;;;;;5094458;28;20020;-56
2022/09/22 04:47:50;;;;;;;4.85;3.80;;;5.70;99.90;;;;;;5094129;28;21262;-56
2022/09/22 04:50:17;;;;;;;5.07;3.70;;;5.70;99.90;;;;;;5093336;28;20028;-56
2022/09/22 04:52:45;;;;;;;4.78;3.50;;;5.70;99.90;;;;;;5094381;28;20020;-57
2022/09/22 04:55:11;;;;;;;5.30;3.30;;;5.60;99.90;;;;;;5094452;28;20505;-56
2022/09/22 04:57:37;;;;;;;6.35;3.40;;;5.60;99.90;;;;;;5093055;28;20020;-57
2022/09/22 05:00:04;;;;;;;5.38;3.50;;;5.70;99.90;;;;;;5094750;28;20107;-57
2022/09/22 05:02:30;;;;;;;4.38;3.40;;;5.70;99.90;;;;;;5094092;28;20024;-57
2022/09/22 05:04:56;;;;;;;4.15;3.20;;;5.60;99.90;;;;;;5094709;28;20123;-57
2022/09/22 05:07:22;;;;;;;5.28;3.78;;;5.60;99.90;;;;;;5094108;28;20555;-57
2022/09/22 05:09:47;;;;;;;6.20;4.63;;;5.60;99.90;;;;;;5094213;28;20078;-57
2022/09/22 05:12:13;;;;;;;4.28;3.75;;;5.50;99.90;;;;;;5094189;28;20024;-57
2022/09/22 05:14:39;;;;;;;4.47;3.47;;;5.40;99.90;;;;;;5094003;28;20031;-57
2022/09/22 05:17:05;;;;;;;4.43;3.50;;;5.40;99.90;;;;;;5094178;28;20031;-56
2022/09/22 05:19:31;;;;;;;5.65;3.30;;;5.40;99.90;;;;;;5094064;28;20036;-57
2022/09/22 05:21:56;;;;;;;4.07;3.67;;;5.40;99.90;;;;;;5094027;28;20382;-57
2022/09/22 05:24:22;;;;;;;5.05;3.60;;;5.40;99.90;;;;;;5094075;28;20035;-56
2022/09/22 05:26:48;;;;;;;8.05;3.90;;;5.30;99.90;;;;;;5093572;28;20076;-56
2022/09/22 05:29:15;;;;;;;5.57;3.70;;;5.40;99.90;;;;;;5093732;28;20024;-57
2022/09/22 05:31:41;;;;;;;6.00;3.40;;;5.50;99.90;;;;;;5093895;28;20466;-57
2022/09/22 05:34:06;;;;;;;6.20;3.38;;;5.50;99.90;;;;;;5093819;28;20077;-57
2022/09/22 05:36:32;;;;;;;5.13;3.50;;;5.70;99.90;;;;;;5093699;28;20500;-56
2022/09/22 05:38:58;;;;;;;6.28;3.60;;;5.50;99.90;;;;;;5093678;28;20024;-56
2022/09/22 05:41:23;;;;;;;6.72;3.60;;;5.40;99.90;;;;;;5093572;28;20032;-57
2022/09/22 05:43:49;;;;;;;6.50;3.67;;;5.50;99.90;;;;;;5093534;28;20111;-57
2022/09/22 05:46:15;;;;;;;8.57;3.72;;;5.50;99.90;;;;;;5093327;28;20371;-57
2022/09/22 05:48:40;;;;;;;10.23;3.55;;;5.40;99.90;;;;;;5093350;28;20564;-56
2022/09/22 05:51:06;;;;;;;6.65;3.63;;;5.50;99.90;;;;;;5093492;28;20016;-57
2022/09/22 05:53:32;;;;;;;4.88;3.70;;;5.50;99.90;;;;;;5093198;28;20048;-57
2022/09/22 05:55:59;;;;;;;6.28;3.90;;;5.40;99.90;;;;;;5093289;28;20016;-57
2022/09/22 05:58:24;;;;;;;4.10;3.38;;;5.50;99.90;;;;;;5093281;28;20051;-60
2022/09/22 06:00:50;;;;;;;6.50;3.80;;;5.70;99.90;;;;;;5093074;28;20486;-59
2022/09/22 06:03:16;;;;;;;6.20;3.70;;;5.70;99.90;;;;;;5093212;28;20157;-59
2022/09/22 06:05:44;;;;;;;5.70;3.50;;;5.70;99.90;;;;;;5093238;28;20020;-59
2022/09/22 06:08:10;;;;;;;5.18;3.65;;;5.70;99.90;;;;;;5093426;28;20107;-59
2022/09/22 06:10:37;;;;;;;9.57;4.03;;;5.70;99.90;;;;;;5093062;28;20029;-60
2022/09/22 06:13:08;;;;;;;16.15;4.50;;;5.70;99.90;;;;;;5093138;28;20114;-59
2022/09/22 06:15:35;;;;;;;11.93;4.10;;;5.60;99.90;;;;;;5092742;28;20042;-59
2022/09/22 06:18:03;;;;;;;19.50;4.32;;;5.70;99.90;;;;;;5093106;28;20035;-60
2022/09/22 06:20:29;;;;;;;7.88;4.03;;;5.80;99.90;;;;;;5093072;28;20051;-60
2022/09/22 06:22:55;;;;;;;10.23;4.13;;;6.10;99.90;;;;;;5092872;28;20043;-60
2022/09/22 06:25:22;;;;;;;9.75;3.90;;;6.20;99.90;;;;;;5093064;28;20375;-60
2022/09/22 06:27:58;;;;;;;11.18;3.90;;;6.30;99.90;;;;;;5092664;28;20107;-60
2022/09/22 06:30:24;;;;;;;9.65;3.58;;;6.60;99.90;;;;;;5092555;28;20027;-60
2022/09/22 06:32:54;;;;;;;9.30;3.92;;;7.00;99.90;;;;;;5092844;28;20567;-59
2022/09/22 06:35:20;;;;;;;8.48;3.90;;;7.20;99.90;;;;;;5092562;28;20027;-60
2022/09/22 06:37:47;;;;;;;8.68;4.20;;;;;;;;;;5092948;28;20021;-60
2022/09/22 06:40:13;;;;;;;10.38;4.07;;;7.80;99.90;;;;;;5092547;28;20028;-60
2022/09/22 06:42:41;;;;;;;9.10;4.35;;;7.60;99.90;;;;;;5092541;28;20440;-61
2022/09/22 06:45:07;;;;;;;8.70;4.30;;;7.90;99.90;;;;;;5092307;28;20519;-60
2022/09/22 06:47:33;;;;;;;6.60;3.70;;;8.30;99.90;;;;;;5092215;28;20059;-60
2022/09/22 06:50:04;;;;;;;8.20;3.92;;;8.90;99.90;;;;;;5092925;28;20028;-59
2022/09/22 06:52:31;;;;;;;4.72;3.65;;;;;;;;;;5092528;28;20035;-59
2022/09/22 06:54:59;;;;;;;8.63;4.05;;;10.20;99.90;;;;;;5092412;28;20441;-59
2022/09/22 06:57:31;;;;;;;9.38;3.80;;;10.40;99.90;;;;;;5091803;28;20044;-61
2022/09/22 06:59:59;;;;;;;6.53;3.58;;;10.70;99.90;;;;;;5091816;28;20024;-61
2022/09/22 07:02:26;;;;;;;11.15;4.05;;;11.40;99.90;;;;;;5092681;28;20131;-61
2022/09/22 07:04:56;;;;;;;8.32;3.97;;;11.00;99.90;;;;;;5092053;28;20032;-61
2022/09/22 07:07:24;;;;;;;11.45;4.18;;;11.50;99.90;;;;;;5092079;28;20470;-61
2022/09/22 07:09:49;;;;;;;10.18;4.00;;;11.80;99.90;;;;;;5092228;28;20024;-61
2022/09/22 07:12:20;;;;;;;8.98;4.00;;;12.10;99.90;;;;;;5092452;28;20024;-61
2022/09/22 07:14:48;;;;;;;8.57;4.00;;;13.80;99.90;;;;;;5091957;28;20050;-61
2022/09/22 07:17:17;;;;;;;6.00;3.65;;;14.60;99.90;;;;;;5091946;28;20573;-62
2022/09/22 07:19:45;;;;;;;11.70;4.00;;;14.00;99.90;;;;;;5091787;28;20024;-62
2022/09/22 07:22:15;;;;;;;7.20;3.60;;;15.30;99.90;;;;;;5091431;28;20023;-61
2022/09/22 07:24:41;;;;;;;6.35;3.60;;;16.40;99.90;;;;;;5092267;28;20488;-61
2022/09/22 07:27:09;;;;;;;11.13;3.90;;;16.50;99.90;;;;;;5091514;28;20399;-61
2022/09/22 07:29:38;;;;;;;11.50;4.20;;;17.40;99.90;;;;;;5091963;28;20439;-61
2022/09/22 07:32:05;;;;;;;8.35;4.05;;;16.80;99.90;;;;;;5091985;28;20082;-61
2022/09/22 07:34:31;;;;;;;8.60;4.13;;;17.10;99.90;;;;;;5092031;28;20410;-61
2022/09/22 07:36:58;;;;;;;8.85;3.75;;;17.30;99.90;;;;;;5091777;28;20024;-61
2022/09/22 07:39:24;;;;;;;7.65;4.30;;;16.70;99.90;;;;;;5092296;28;20046;-60
2022/09/22 07:41:50;;;;;;;8.32;4.03;;;18.00;99.90;;;;;;5091674;28;20024;-61
2022/09/22 07:47:02;;;;;;;4.82;2.30;;;19.30;99.40;;;;;;5091864;28;20141;-61
2022/09/22 07:49:28;;;;;;;7.93;3.47;;;20.10;97.70;;;;;;5091801;28;20020;-61
2022/09/22 07:51:56;;;;;;;9.32;3.45;;;19.90;96.50;;;;;;5091812;28;20031;-61
2022/09/22 07:54:23;;;;;;;8.35;3.40;;;19.80;97.30;;;;;;5091503;28;20048;-61
2022/09/22 07:56:50;;;;;;;6.35;3.20;;;19.50;96.80;;;;;;5091471;28;20027;-61
2022/09/22 07:59:16;;;;;;;7.25;3.47;;;20.00;97.20;;;;;;5091741;28;20043;-61
2022/09/22 08:01:46;;;;;;;6.28;3.20;;;20.30;96.10;;;;;;5092207;28;20024;-61
2022/09/22 08:04:15;;;;;;;6.63;3.17;;;22.10;95.30;;;;;;5091844;28;20494;-61
2022/09/22 08:06:45;;;;;;;9.98;3.17;;;23.40;92.80;;;;;;5091544;28;20055;-61
2022/09/22 08:09:12;;;;;;;6.75;3.10;;;22.10;92.60;;;;;;5091747;28;20012;-61
2022/09/22 08:11:38;;;;;;;6.32;2.80;;;22.00;92.00;;;;;;5091312;28;20020;-61
2022/09/22 08:14:06;;;;;;;4.53;2.38;;;23.50;91.40;;;;;;5092065;28;20074;-62
2022/09/22 08:16:38;;;;;;;3.92;2.22;;;24.50;87.30;;;;;;5091751;28;20420;-62
2022/09/22 08:19:13;;;;;;;9.85;3.45;;;24.70;85.00;;;;;;5091689;28;20382;-62
2022/09/22 08:21:41;;;;;;;6.40;3.00;;;24.60;88.10;;;;;;5092166;28;20442;-62
2022/09/22 08:24:10;;;;;;;6.82;2.47;;;25.10;86.40;;;;;;5091116;28;20024;-61
2022/09/22 08:26:43;;;;;;;6.55;2.72;;;26.00;83.30;;;;;;5090651;28;20487;-62
2022/09/22 08:29:09;;;;;;;11.48;3.05;;;26.90;82.70;;;;;;5090642;28;20031;-61
2022/09/22 08:31:37;;;;;;;7.57;2.50;;;26.40;82.00;;;;;;5091500;28;20038;-61
2022/09/22 08:34:05;;;;;;;5.85;2.20;;;26.70;80.40;;;;;;5095531;28;20024;-60
2022/09/22 08:36:32;;;;;;;6.78;2.40;;;26.80;78.60;;;;;;5094758;28;20081;-61
2022/09/22 08:38:59;;;;;;;9.55;2.38;;;26.60;79.30;;;;;;5094587;28;20028;-61
2022/09/22 08:41:28;;;;;;;5.30;2.30;;;27.60;78.30;;;;;;5095044;28;20028;-62
2022/09/22 08:44:00;;;;;;;8.18;2.35;;;28.30;75.80;;;;;;5094951;28;20024;-62
2022/09/22 08:46:40;;;;;;;6.68;2.00;;;29.40;74.40;;;;;;5094832;28;20394;-62
2022/09/22 08:52:24;;;;;;;7.03;2.25;;;29.50;73.20;;;;;;5094965;28;20120;-62
2022/09/22 08:54:50;;;;;;;7.85;2.25;;;29.80;74.00;;;;;;5094310;28;20040;-62
2022/09/22 08:57:48;;;;;;;4.03;1.98;;;30.30;70.50;;;;;;5094715;28;20032;-62
2022/09/22 09:00:16;;;;;;;5.88;2.03;;;30.70;69.50;;;;;;5094407;28;20486;-62
2022/09/22 09:03:18;;;;;;;3.45;2.03;;;30.80;71.10;;;;;;5094935;28;20028;-62
2022/09/22 09:05:54;;;;;;;4.35;1.95;;;31.90;67.90;;;;;;5094731;28;20436;-62
2022/09/22 09:08:44;;;;;;;7.32;1.92;;;31.70;67.40;;;;;;5094154;28;20024;-62
2022/09/22 09:11:26;;;;;;;3.95;1.88;;;30.50;66.60;;;;;;5094484;28;20035;-62
2022/09/22 09:13:57;;;;;;;4.45;2.10;;;31.80;66.90;;;;;;5094836;28;20023;-62
2022/09/22 09:16:35;;;;;;;5.68;1.92;;;31.30;66.20;;;;;;5094255;28;20475;-62
2022/09/22 09:19:15;;;;;;;6.57;1.80;;;32.40;67.90;;;;;;5094082;28;20551;-61
2022/09/22 09:21:47;;;;;;;4.50;1.90;;;32.40;65.00;;;;;;5093945;28;20043;-62
2022/09/22 09:24:28;;;;;;;4.18;1.80;;;33.80;65.30;;;;;;5093280;28;20031;-62
2022/09/22 09:27:03;;;;;;;2.95;1.63;;;33.10;64.10;;;;;;5093800;28;20062;-62
2022/09/22 09:29:32;;;;;;;3.75;1.67;;;32.50;66.90;;;;;;5094381;28;20024;-62
2022/09/22 09:32:05;;;;;;;4.07;2.65;;;34.70;63.80;;;;;;5093759;28;20086;-62
2022/09/22 09:34:31;;;;;;;4.35;2.58;;;35.70;62.50;;;;;;5093953;28;20032;-63
2022/09/22 09:37:09;;;;;;;5.97;1.67;;;35.20;62.90;;;;;;5092984;28;20089;-61
2022/09/22 09:39:38;;;;;;;3.65;1.73;;;34.70;60.70;;;;;;5092677;28;20024;-63
2022/09/22 09:42:27;;;;;;;4.18;1.92;;;36.10;61.00;;;;;;5093558;28;20024;-62
2022/09/22 09:44:54;;;;;;;4.60;2.40;;;36.20;61.20;;;;;;5092418;28;20904;-62
2022/09/22 09:47:28;;;;;;;2.92;1.67;;;34.30;63.70;;;;;;5093896;28;20421;-62
2022/09/22 09:49:54;;;;;;;3.30;1.92;;;36.00;60.40;;;;;;5073361;28;20028;-63
2022/09/22 09:52:22;;;;;;;2.08;1.75;;;36.90;61.70;;;;;;5072964;28;20029;-63
2022/09/22 09:54:48;;;;;;;2.60;1.80;;;37.20;60.50;;;;;;5073153;28;20052;-62
2022/09/22 09:57:16;;;;;;;3.40;1.70;;;37.30;60.00;;;;;;5073293;28;20029;-61
2022/09/22 10:02:34;;;;;;;4.47;2.20;;;35.70;58.60;;;;;;5072429;28;20085;-63
2022/09/22 10:05:01;;;;;;;;;;;36.00;57.50;;;;;;5073610;28;20036;-62
2022/09/22 10:08:03;;;;;;;3.03;1.88;;;36.60;58.20;;;;;;5072802;28;19912;-63
2022/09/22 10:10:32;;;;;;;1.55;1.45;;;37.60;57.30;;;;;;4991792;28;20026;-62
2022/09/22 10:13:03;;;;;;;2.40;1.60;;;38.70;58.60;;;;;;4990522;28;20113;-62
2022/09/22 10:15:34;;;;;;;3.28;1.73;;;38.00;56.40;;;;;;4991086;28;20539;-62
2022/09/22 10:18:00;;;;;;;2.70;1.48;;;38.90;55.60;;;;;;4991510;28;20030;-62
2022/09/22 10:20:32;;;;;;;3.45;1.40;;;38.30;55.40;;;;;;4991106;28;20624;-65
2022/09/22 10:23:33;;;;;;;2.05;1.42;;;37.40;54.80;;;;;;4991462;28;20479;-62
2022/09/22 10:26:31;;;;;;;3.03;1.63;;;38.60;52.70;;;;;;4955912;28;20027;-61
2022/09/22 10:29:18;;;;;;;2.08;1.50;;;39.80;53.70;;;;;;4990436;28;20754;-62
2022/09/22 10:32:14;;;;;;;1.92;1.35;;;40.20;53.70;;;;;;4990255;28;20046;-61
2022/09/22 10:34:46;;;;;;;3.80;1.50;;;41.30;51.90;;;;;;4970086;28;20041;-62
2022/09/22 10:37:17;;;;;;;3.85;1.50;;;40.00;51.30;;;;;;4974798;28;20046;-62
2022/09/22 10:39:55;;;;;;;2.53;1.42;;;38.20;51.60;;;;;;4991017;28;20026;-62
2022/09/22 10:42:34;;;;;;;1.77;1.40;;;39.60;52.40;;;;;;4991130;28;20450;-62
2022/09/22 10:45:06;;;;;;;1.52;1.40;;;40.60;52.40;;;;;;5033171;28;20033;-62
2022/09/22 10:47:59;;;;;;;1.50;1.40;;;41.90;51.30;;;;;;5050351;28;20102;-61
2022/09/22 10:50:40;;;;;;;6.32;1.55;;;41.50;50.50;;;;;;5069674;28;20028;-61
2022/09/22 10:53:06;;;;;;;1.98;1.42;;;42.60;51.00;;;;;;5070200;28;20040;-61
2022/09/22 10:55:43;;;;;;;1.30;1.20;;;40.30;54.00;;;;;;5069854;28;20024;-61
2022/09/22 10:58:35;;;;;;;1.92;1.38;;;41.00;51.90;;;;;;5053130;28;20032;-61
2022/09/22 11:01:39;;;;;;;3.22;1.40;;;39.40;50.90;;;;;;5088037;28;20453;-61
2022/09/22 11:04:41;;;;;;;2.33;1.48;;;40.90;51.10;;;;;;5092402;28;20082;-60
2022/09/22 11:13:53;;;;;;;2.35;1.23;;;32.80;59.60;;;;;;5030576;28;20044;-60
2022/09/22 11:16:33;;;;;;;3.40;1.65;;;32.20;57.70;;;;;;5029647;28;20180;-61
2022/09/22 11:19:13;;;;;;;2.30;1.45;;;33.10;58.60;;;;;;5029448;28;20056;-61
2022/09/22 11:21:58;;;;;;;3.00;1.50;;;31.10;63.70;;;;;;5030263;28;20046;-60
2022/09/22 11:24:43;;;;;;;2.42;1.30;;;31.50;58.00;;;;;;5029636;28;20116;-61
2022/09/22 11:27:21;;;;;;;1.73;1.50;;;31.80;56.50;;;;;;5030042;28;20046;-60
2022/09/22 11:30:00;;;;;;;3.97;2.08;;;31.10;59.30;;;;;;5030168;28;20040;-60
2022/09/22 11:32:53;;;;;;;3.40;1.40;;;31.50;59.70;;;;;;5029746;28;20431;-60
2022/09/22 11:35:28;;;;;;;3.50;1.35;;;30.20;61.30;;;;;;5029159;28;20120;-60
2022/09/22 11:38:12;;;;;;;2.28;1.20;;;29.20;62.40;;;;;;5029757;28;20053;-60
2022/09/22 11:40:38;;;;;;;3.25;1.50;;;29.70;62.10;;;;;;5029437;28;20117;-60
2022/09/22 11:43:21;;;;;;;1.60;1.25;;;31.10;58.80;;;;;;5029702;28;20129;-60
2022/09/22 11:46:09;;;;;;;1.20;1.10;;;29.60;62.30;;;;;;5029834;28;20388;-60
2022/09/22 11:48:52;;;;;;;2.35;1.27;;;27.60;64.70;;;;;;5091310;28;20030;-60
2022/09/22 11:51:37;;;;;;;3.15;1.52;;;28.40;65.10;;;;;;5091788;28;20020;-60
2022/09/22 11:54:08;;;;;;;2.08;1.40;;;28.40;61.80;;;;;;5091574;28;20044;-60
2022/09/22 11:56:50;;;;;;;2.97;1.30;;;28.80;59.10;;;;;;5091672;28;20127;-60
2022/09/22 11:59:24;;;;;;;3.63;1.40;;;29.90;60.70;;;;;;5091857;28;20579;-60
2022/09/22 12:01:53;;;;;;;1.70;1.17;;;28.50;62.50;;;;;;5092014;28;20453;-60
2022/09/22 12:04:33;;;;;;;1.48;1.30;;;26.40;66.40;;;;;;5091689;28;20024;-60
2022/09/22 12:07:02;;;;;;;2.97;1.52;;;26.80;64.60;;;;;;5092766;28;20024;-60
2022/09/22 12:09:30;;;;;;;1.80;1.25;;;26.10;66.90;;;;;;5095590;28;20020;-60
2022/09/22 12:11:58;;;;;;;2.03;1.17;;;27.20;62.90;;;;;;5095943;28;20165;-60
2022/09/22 12:14:26;;;;;;;3.22;1.20;;;27.70;64.40;;;;;;5095423;28;20028;-60
2022/09/22 12:17:03;;;;;;;1.95;1.10;;;27.90;63.20;;;;;;5095128;28;20036;-60
2022/09/22 12:20:03;;;;;;;4.10;1.40;;;28.10;60.10;;;;;;5095367;28;20031;-60
2022/09/22 12:22:53;;;;;;;3.03;1.30;;;27.60;64.00;;;;;;5095686;28;20031;-60
2022/09/22 12:25:45;;;;;;;1.65;1.08;;;27.10;61.60;;;;;;5094640;28;20111;-60
2022/09/22 12:28:15;;;;;;;3.78;1.33;;;27.20;66.10;;;;;;5095663;28;20502;-60
2022/09/22 12:31:11;;;;;;;1.17;1.08;;;26.40;67.20;;;;;;5095088;28;20390;-60
2022/09/22 12:33:44;;;;;;;2.58;1.40;;;26.00;66.30;;;;;;5095218;28;20070;-60
2022/09/22 12:36:10;;;;;;;2.00;1.20;;;26.10;64.80;;;;;;5095176;28;20058;-60
2022/09/22 12:38:37;;;;;;;2.85;1.20;;;26.60;65.90;;;;;;5095052;28;20016;-60
2022/09/22 12:41:04;;;;;;;3.38;1.40;;;26.70;63.40;;;;;;5095172;28;20036;-60
2022/09/22 12:43:33;;;;;;;2.45;1.48;;;27.10;61.60;;;;;;5095265;28;20395;-60
2022/09/22 12:46:04;;;;;;;2.55;1.40;;;27.10;63.00;;;;;;5094651;28;20012;-60
2022/09/22 12:48:34;;;;;;;2.38;1.23;;;25.60;68.40;;;;;;5094825;28;20093;-61
2022/09/22 12:51:24;;;;;;;3.47;1.40;;;25.20;67.10;;;;;;5094905;28;20099;-60
2022/09/22 12:54:10;;;;;;;4.45;1.42;;;25.60;68.00;;;;;;5094757;28;20044;-60
2022/09/22 12:56:45;;;;;;;2.22;1.55;;;26.10;65.00;;;;;;5094628;28;20111;-60
2022/09/22 12:59:36;;;;;;;2.08;1.38;;;25.90;66.30;;;;;;5094941;28;20024;-60
2022/09/22 13:02:12;;;;;;;2.28;1.50;;;24.20;69.80;;;;;;5094249;28;20414;-60
2022/09/22 13:04:38;;;;;;;1.45;1.10;;;24.50;70.10;;;;;;5094559;28;20022;-60
2022/09/22 13:07:40;;;;;;;4.00;1.40;;;25.30;68.00;;;;;;5094853;28;20081;-60
2022/09/22 13:10:21;;;;;;;2.58;1.20;;;25.20;68.00;;;;;;5094511;28;20031;-60
2022/09/22 13:13:02;;;;;;;4.10;2.05;;;24.00;69.60;;;;;;5094640;28;20402;-60
2022/09/22 13:15:55;;;;;;;2.15;1.52;;;24.80;68.00;;;;;;5094036;28;20049;-60
2022/09/22 13:18:41;;;;;;;1.67;1.30;;;24.80;67.80;;;;;;5093685;28;20024;-60
2022/09/22 13:21:13;;;;;;;3.45;1.40;;;24.50;69.40;;;;;;5094177;28;20032;-60
2022/09/22 13:23:53;;;;;;;4.20;1.40;;;25.40;66.20;;;;;;5094242;28;20047;-60
2022/09/22 13:26:39;;;;;;;1.80;1.20;;;25.00;69.20;;;;;;5093973;28;20032;-60
2022/09/22 13:29:17;;;;;;;2.58;1.30;;;25.10;68.20;;;;;;5093749;28;20035;-60
2022/09/22 13:31:55;;;;;;;3.42;1.33;;;25.10;66.00;;;;;;5092846;28;20066;-60
2022/09/22 13:34:28;;;;;;;4.88;1.30;;;25.20;68.10;;;;;;5094085;28;20031;-60